Accueil
METAR-TAF:

METAR-TAF

Aéroports :

Schwäbisch Hall, Allemagne

latitude: 49-07-06N, longitude: 9-47-02E, altitude: 398 m

Observation

Le bulletin a été fait il y a 29 minutes, à 14:20 UTC
Vent 6 kt de est/nord-est, variant entre nord/nord-est et est
Température 25°C
Humidité 32%
Pression 1015 hPa
Visibilité 10 km ou plus
pas de nuages en-dessous de 1500 mètres et pas de cumulonimbus.

METAR: EDTY 021420Z 07006KT 020V100 CAVOK 25/07 Q1015

Heure: 16:49 (14:49 UTC)

Prévision

Le bulletin a été fait il y a 49 minutes, à 14:00 UTC
Prévision valable du 02 à 15 UTC au 02 à 24 UTC
Vent 5 kt de nord/nord-est
Visibilité 10 km ou plus
pas de nuages en-dessous de 1500 mètres et pas de cumulonimbus.
Evoluant progressivement
du 02 à 18 UTC au 02 à 20 UTC
Vent 3 kt de direction variable

TAF: EDTY 021400Z 0215/0224 03005KT CAVOK BECMG 0218/0220 VRB03KT

Observations et prévisions météorologiques de plus de 4000 aéroports (messages METAR et TAF).

Les stations disponibles sont représentées par des disques jaunes et rouges sur la carte.

Passer la souris dessus pour voir le nom de la station.

Cliquer dessus pour voir les observations et prévisions météorologiques.

Pour changer de carte: cliquez sur les boutons verts avec une croix noire pour zoomer, sur le bouton vert avec un tiret pour effectuer un zoom arrière, ou sur les flèches vertes pour les cartes adjacentes.


METAR-TAF: